Time;durP1;ratioP1;P1;durP2;ratioP2;P2;SDS_P1;SDS_P2;PMS_P1;PMS_P2;Temp;Humidity;BMP_temperature;BMP_pressure;BME280_temperature;BME280_humidity;BME280_pressure;Samples;Min_cycle;Max_cycle;Signal;HPM_P1;HPM_P2
2022/07/20 00:02:03;;;;;;;;;;;;;;;;;;2206254;59;2009;-61
2022/07/20 00:04:37;;;;;;;;;;;;;;;;;;2206236;59;1255;-63
2022/07/20 00:07:10;;;;;;;;;;;;;;;;;;2205912;59;1070;-59
2022/07/20 00:12:32;;;;;;;;;;;;;;;;;;2206092;59;1665;-61
2022/07/20 00:15:05;;;;;;;;;;;;;;;;;;2207095;67;1281;-61
2022/07/20 00:17:41;;;;;;;;;;;;;;;;;;2206087;67;1101;-64
2022/07/20 00:20:14;;;;;;;;;;;;;;;;;;2206328;59;2056;-63
2022/07/20 00:22:48;;;;;;;;;;;;;;;;;;2206396;67;1986;-63
2022/07/20 00:25:21;;;;;;;;;;;;;;;;;;2206639;67;1311;-64
2022/07/20 00:27:54;;;;;;;;;;;;;;;;;;2206311;67;1155;-63
2022/07/20 00:30:28;;;;;;;;;;;;;;;;;;2206753;59;1227;-62
2022/07/20 00:33:04;;;;;;;;;;;;;;;;;;2206539;67;1200;-61
2022/07/20 00:35:37;;;;;;;;;;;;;;;;;;2206282;67;1257;-63
2022/07/20 00:38:10;;;;;;;;;;;;;;;;;;2206723;67;1077;-62
2022/07/20 00:40:43;;;;;;;;;;;;;;;;;;2206302;67;1237;-64
2022/07/20 00:43:16;;;;;;;;;;;;;;;;;;2206492;67;1921;-60
2022/07/20 00:45:49;;;;;;;;;;;;;;;;;;2205736;67;1204;-64
2022/07/20 00:48:25;;;;;;;;;;;;;;;;;;2206534;67;1221;-61
2022/07/20 00:50:58;;;;;;;;;;;;;;;;;;2206367;67;1138;-63
2022/07/20 00:53:32;;;;;;;;;;;;;;;;;;2206503;67;1099;-63
2022/07/20 00:56:05;;;;;;;;;;;;;;;;;;2207079;67;1308;-64
2022/07/20 00:58:38;;;;;;;;;;;;;;;;;;2206846;67;1105;-64
2022/07/20 01:01:11;;;;;;;;;;;;;;;;;;2206950;67;1157;-61
2022/07/20 01:03:48;;;;;;;;;;;;;;;;;;2206625;59;1933;-63
2022/07/20 01:06:21;;;;;;;;;;;;;;;;;;2206772;67;1289;-61
2022/07/20 01:08:54;;;;;;;;;;;;;;;;;;2206810;67;1220;-63
2022/07/20 01:11:27;;;;;;;;;;;;;;;;;;2207046;59;1427;-63
2022/07/20 01:14:04;;;;;;;;;;;;;;;;;;2206785;67;1230;-61
2022/07/20 01:16:37;;;;;;;;;;;;;;;;;;2206085;67;1195;-62
2022/07/20 01:19:13;;;;;;;;;;;;;;;;;;2207017;59;2034;-62
2022/07/20 01:21:49;;;;;;;;;;;;;;;;;;2206379;67;1988;-63
2022/07/20 01:24:23;;;;;;;;;;;;;;;;;;2206978;67;1283;-64
2022/07/20 01:26:56;;;;;;;;;;;;;;;;;;2206457;67;1176;-62
2022/07/20 01:29:29;;;;;;;;;;;;;;;;;;2206598;59;1177;-59
2022/07/20 01:32:02;;;;;;;;;;;;;;;;;;2206668;67;1188;-64
2022/07/20 01:34:36;;;;;;;;;;;;;;;;;;2207272;67;1144;-64
2022/07/20 01:37:11;;;;;;;;;;;;;;;;;;2207108;67;1115;-63
2022/07/20 01:39:44;;;;;;;;;;;;;;;;;;2207247;67;1028;-63
2022/07/20 01:42:18;;;;;;;;;;;;;;;;;;2207568;67;1933;-64
2022/07/20 01:44:51;;;;;;;;;;;;;;;;;;2207110;67;1331;-64
2022/07/20 01:47:24;;;;;;;;;;;;;;;;;;2207197;67;1307;-62
2022/07/20 01:49:57;;;;;;;;;;;;;;;;;;2206938;67;1176;-61
2022/07/20 01:52:33;;;;;;;;;;;;;;;;;;2207292;67;1037;-59
2022/07/20 01:55:07;;;;;;;;;;;;;;;;;;2207388;67;1286;-62
2022/07/20 01:57:40;;;;;;;;;;;;;;;;;;2207211;67;1105;-63
2022/07/20 02:00:14;;;;;;;;;;;;;;;;;;2206946;67;1197;-64
2022/07/20 02:02:47;;;;;;;;;;;;;;;;;;2206541;59;1937;-62
2022/07/20 02:05:20;;;;;;;;;;;;;;;;;;2206929;67;1245;-64
2022/07/20 02:07:56;;;;;;;;;;;;;;;;;;2206274;67;1054;-63
2022/07/20 02:10:30;;;;;;;;;;;;;;;;;;2206965;59;1413;-62
2022/07/20 02:13:03;;;;;;;;;;;;;;;;;;2206725;59;1134;-63
2022/07/20 02:18:40;;;;;;;;;;;;;;;;;;2206308;59;2007;-59
2022/07/20 02:21:13;;;;;;;;;;;;;;;;;;2206573;67;2083;-64
2022/07/20 02:23:49;;;;;;;;;;;;;;;;;;2206550;59;1979;-64
2022/07/20 02:26:22;;;;;;;;;;;;;;;;;;2206978;67;1227;-63
2022/07/20 02:28:55;;;;;;;;;;;;;;;;;;2206648;67;1120;-63
2022/07/20 02:31:28;;;;;;;;;;;;;;;;;;2206496;59;1237;-64
2022/07/20 02:34:02;;;;;;;;;;;;;;;;;;2206259;59;2110;-64
2022/07/20 02:36:35;;;;;;;;;;;;;;;;;;2207314;67;1151;-62
2022/07/20 02:39:11;;;;;;;;;;;;;;;;;;2208117;67;1167;-63
2022/07/20 02:41:44;;;;;;;;;;;;;;;;;;2207458;67;1128;-64
2022/07/20 02:44:17;;;;;;;;;;;;;;;;;;2207743;67;2016;-63
2022/07/20 02:46:50;;;;;;;;;;;;;;;;;;2207334;67;1149;-64
2022/07/20 02:49:23;;;;;;;;;;;;;;;;;;2207909;67;1245;-59
2022/07/20 02:51:56;;;;;;;;;;;;;;;;;;2206535;59;2020;-62
2022/07/20 02:54:32;;;;;;;;;;;;;;;;;;2208273;67;1219;-62
2022/07/20 02:57:05;;;;;;;;;;;;;;;;;;2207198;67;1157;-63
2022/07/20 02:59:39;;;;;;;;;;;;;;;;;;2206558;67;1107;-63
2022/07/20 03:02:12;;;;;;;;;;;;;;;;;;2206967;67;1925;-64
2022/07/20 03:04:45;;;;;;;;;;;;;;;;;;2207008;59;2195;-64
2022/07/20 03:07:18;;;;;;;;;;;;;;;;;;2207047;59;1623;-65
2022/07/20 03:09:54;;;;;;;;;;;;;;;;;;2207143;67;1137;-63
2022/07/20 03:12:28;;;;;;;;;;;;;;;;;;2207616;59;1382;-65
2022/07/20 03:15:01;;;;;;;;;;;;;;;;;;2207389;67;1252;-63
2022/07/20 03:17:34;;;;;;;;;;;;;;;;;;2206763;67;1199;-62
2022/07/20 03:20:07;;;;;;;;;;;;;;;;;;2207417;59;2562;-64
2022/07/20 03:22:41;;;;;;;;;;;;;;;;;;2206905;67;1936;-65
2022/07/20 03:25:17;;;;;;;;;;;;;;;;;;2207758;67;1196;-63
2022/07/20 03:27:50;;;;;;;;;;;;;;;;;;2206297;67;1229;-64
2022/07/20 03:30:23;;;;;;;;;;;;;;;;;;2206918;59;1263;-62
2022/07/20 03:32:56;;;;;;;;;;;;;;;;;;2206226;67;1136;-63
2022/07/20 03:35:29;;;;;;;;;;;;;;;;;;2208035;67;1207;-64
2022/07/20 03:38:02;;;;;;;;;;;;;;;;;;2207588;59;1365;-64
2022/07/20 03:40:38;;;;;;;;;;;;;;;;;;2206965;59;1327;-63
2022/07/20 03:43:12;;;;;;;;;;;;;;;;;;2207044;67;1990;-61
2022/07/20 03:45:45;;;;;;;;;;;;;;;;;;2207279;67;1214;-63
2022/07/20 03:48:18;;;;;;;;;;;;;;;;;;2207341;67;1280;-62
2022/07/20 03:50:52;;;;;;;;;;;;;;;;;;2207319;59;1085;-63
2022/07/20 03:53:25;;;;;;;;;;;;;;;;;;2207628;67;1252;-64
2022/07/20 03:56:01;;;;;;;;;;;;;;;;;;2206626;67;1266;-63
2022/07/20 03:58:34;;;;;;;;;;;;;;;;;;2207160;67;1225;-63
2022/07/20 04:01:07;;;;;;;;;;;;;;;;;;2206312;67;1145;-63
2022/07/20 04:03:40;;;;;;;;;;;;;;;;;;2206825;59;1953;-64
2022/07/20 04:06:13;;;;;;;;;;;;;;;;;;2206225;67;1204;-63
2022/07/20 04:08:48;;;;;;;;;;;;;;;;;;2206603;67;1129;-59
2022/07/20 04:11:24;;;;;;;;;;;;;;;;;;2207687;59;1418;-62
2022/07/20 04:13:57;;;;;;;;;;;;;;;;;;2207365;67;1179;-61
2022/07/20 04:16:30;;;;;;;;;;;;;;;;;;2206689;67;1457;-63
2022/07/20 04:19:03;;;;;;;;;;;;;;;;;;2206448;59;2106;-64
2022/07/20 04:21:37;;;;;;;;;;;;;;;;;;2207035;67;1207;-64
2022/07/20 04:24:10;;;;;;;;;;;;;;;;;;2206593;67;1930;-65
2022/07/20 04:26:46;;;;;;;;;;;;;;;;;;2207122;67;1179;-64
2022/07/20 04:29:20;;;;;;;;;;;;;;;;;;2207115;59;1207;-64
2022/07/20 04:31:54;;;;;;;;;;;;;;;;;;2206733;67;1095;-64
2022/07/20 04:34:27;;;;;;;;;;;;;;;;;;2206331;67;1206;-65
2022/07/20 04:37:00;;;;;;;;;;;;;;;;;;2206503;67;1143;-62
2022/07/20 04:39:33;;;;;;;;;;;;;;;;;;2207294;67;1228;-64
2022/07/20 04:42:09;;;;;;;;;;;;;;;;;;2206485;67;1014;-65
2022/07/20 04:44:43;;;;;;;;;;;;;;;;;;2207090;67;1924;-63
2022/07/20 04:47:16;;;;;;;;;;;;;;;;;;2206259;67;1318;-64
2022/07/20 04:49:49;;;;;;;;;;;;;;;;;;2206791;67;1211;-64
2022/07/20 04:52:22;;;;;;;;;;;;;;;;;;2206974;67;1249;-64
2022/07/20 04:54:55;;;;;;;;;;;;;;;;;;2206546;67;1234;-64
2022/07/20 04:57:31;;;;;;;;;;;;;;;;;;2206118;67;1550;-65
2022/07/20 05:00:05;;;;;;;;;;;;;;;;;;2206428;67;1116;-65
2022/07/20 05:02:38;;;;;;;;;;;;;;;;;;2206324;59;1290;-64
2022/07/20 05:05:11;;;;;;;;;;;;;;;;;;2206864;67;1910;-64
2022/07/20 05:07:44;;;;;;;;;;;;;;;;;;2206644;67;1239;-65
2022/07/20 05:10:17;;;;;;;;;;;;;;;;;;2206667;67;1209;-64
2022/07/20 05:12:53;;;;;;;;;;;;;;;;;;2206637;59;1848;-65
2022/07/20 05:15:27;;;;;;;;;;;;;;;;;;2206603;67;1315;-62
2022/07/20 05:18:00;;;;;;;;;;;;;;;;;;2205946;67;1129;-62
2022/07/20 05:20:33;;;;;;;;;;;;;;;;;;2206367;59;2130;-64
2022/07/20 05:23:06;;;;;;;;;;;;;;;;;;2206757;67;1956;-64
2022/07/20 05:25:40;;;;;;;;;;;;;;;;;;2206622;67;1255;-63
2022/07/20 05:28:18;;;;;;;;;;;;;;;;;;2206632;67;1061;-61
2022/07/20 05:30:52;;;;;;;;;;;;;;;;;;2206293;59;1283;-59
2022/07/20 05:33:25;;;;;;;;;;;;;;;;;;2206831;67;1203;-62
2022/07/20 05:36:00;;;;;;;;;;;;;;;;;;2206520;67;1239;-63
2022/07/20 05:38:33;;;;;;;;;;;;;;;;;;2205661;67;1079;-63
2022/07/20 05:41:07;;;;;;;;;;;;;;;;;;2205954;67;1218;-64
2022/07/20 05:43:43;;;;;;;;;;;;;;;;;;2206109;67;1936;-63
2022/07/20 05:46:16;;;;;;;;;;;;;;;;;;2205706;59;1284;-65
2022/07/20 05:48:49;;;;;;;;;;;;;;;;;;2206313;59;1208;-64
2022/07/20 05:51:22;;;;;;;;;;;;;;;;;;2206138;67;1369;-63
2022/07/20 05:53:55;;;;;;;;;;;;;;;;;;2206346;67;1294;-64
2022/07/20 05:56:28;;;;;;;;;;;;;;;;;;2206522;67;1241;-63
2022/07/20 05:59:04;;;;;;;;;;;;;;;;;;2205936;67;1102;-64
2022/07/20 06:01:40;;;;;;;;;;;;;;;;;;2205820;67;1278;-64
2022/07/20 06:04:14;;;;;;;;;;;;;;;;;;2205642;59;1939;-63
2022/07/20 06:06:47;;;;;;;;;;;;;;;;;;2205951;67;1057;-64
2022/07/20 06:09:20;;;;;;;;;;;;;;;;;;2206089;67;1204;-65
2022/07/20 06:11:53;;;;;;;;;;;;;;;;;;2205905;59;1362;-64
2022/07/20 06:14:29;;;;;;;;;;;;;;;;;;2206036;67;1235;-65
2022/07/20 06:17:02;;;;;;;;;;;;;;;;;;2205673;67;1963;-65
2022/07/20 06:19:35;;;;;;;;;;;;;;;;;;2206722;59;1955;-63
2022/07/20 06:22:08;;;;;;;;;;;;;;;;;;2207298;67;1072;-64
2022/07/20 06:24:41;;;;;;;;;;;;;;;;;;2206771;67;1935;-64
2022/07/20 06:27:15;;;;;;;;;;;;;;;;;;2206941;67;1216;-64
2022/07/20 06:29:50;;;;;;;;;;;;;;;;;;2206801;59;1102;-64
2022/07/20 06:32:24;;;;;;;;;;;;;;;;;;2207022;67;1590;-64
2022/07/20 06:34:57;;;;;;;;;;;;;;;;;;2207404;67;1270;-65
2022/07/20 06:37:30;;;;;;;;;;;;;;;;;;2206582;67;1250;-65
2022/07/20 06:40:03;;;;;;;;;;;;;;;;;;2206453;67;1192;-64
2022/07/20 06:42:37;;;;;;;;;;;;;;;;;;2207092;67;1095;-64
2022/07/20 06:45:13;;;;;;;;;;;;;;;;;;2206648;67;1945;-64
2022/07/20 06:47:46;;;;;;;;;;;;;;;;;;2206765;67;1151;-64
2022/07/20 06:50:19;;;;;;;;;;;;;;;;;;2207281;67;1222;-65
2022/07/20 06:52:52;;;;;;;;;;;;;;;;;;2206936;67;1247;-65
2022/07/20 06:55:26;;;;;;;;;;;;;;;;;;2207089;67;1323;-65
2022/07/20 06:57:59;;;;;;;;;;;;;;;;;;2206777;67;1039;-65
2022/07/20 07:00:35;;;;;;;;;;;;;;;;;;2206007;67;1094;-63
2022/07/20 07:03:08;;;;;;;;;;;;;;;;;;2206769;59;1254;-64
2022/07/20 07:05:41;;;;;;;;;;;;;;;;;;2206715;67;1928;-65
2022/07/20 07:08:14;;;;;;;;;;;;;;;;;;2207407;67;1090;-65
2022/07/20 07:10:47;;;;;;;;;;;;;;;;;;2207563;59;1435;-65
2022/07/20 07:13:20;;;;;;;;;;;;;;;;;;2207820;67;1653;-63
2022/07/20 07:15:56;;;;;;;;;;;;;;;;;;2207218;67;1221;-65
2022/07/20 07:18:29;;;;;;;;;;;;;;;;;;2207517;59;2086;-65
2022/07/20 07:21:02;;;;;;;;;;;;;;;;;;2207706;59;1911;-61
2022/07/20 07:23:35;;;;;;;;;;;;;;;;;;2207487;67;1018;-64
2022/07/20 07:26:09;;;;;;;;;;;;;;;;;;2207449;67;1925;-65
2022/07/20 07:28:42;;;;;;;;;;;;;;;;;;2207119;67;1012;-65
2022/07/20 07:31:18;;;;;;;;;;;;;;;;;;2207327;59;1113;-63
2022/07/20 07:33:51;;;;;;;;;;;;;;;;;;2206721;67;1118;-65
2022/07/20 07:36:24;;;;;;;;;;;;;;;;;;2207358;67;1305;-64
2022/07/20 07:38:58;;;;;;;;;;;;;;;;;;2207185;67;1073;-64
2022/07/20 07:41:31;;;;;;;;;;;;;;;;;;2207135;67;1014;-62
2022/07/20 07:44:04;;;;;;;;;;;;;;;;;;2207239;67;1965;-64
2022/07/20 07:46:40;;;;;;;;;;;;;;;;;;2206697;67;1167;-63
2022/07/20 07:49:13;;;;;;;;;;;;;;;;;;2207415;67;1109;-65
2022/07/20 07:51:46;;;;;;;;;;;;;;;;;;2206526;67;1148;-62
2022/07/20 07:54:19;;;;;;;;;;;;;;;;;;2207381;67;1255;-61
2022/07/20 07:56:53;;;;;;;;;;;;;;;;;;2206396;67;1235;-62
2022/07/20 07:59:26;;;;;;;;;;;;;;;;;;2206817;67;1230;-63
2022/07/20 08:02:02;;;;;;;;;;;;;;;;;;2206731;67;1052;-65
2022/07/20 08:04:35;;;;;;;;;;;;;;;;;;2206005;59;1936;-62
2022/07/20 08:07:08;;;;;;;;;;;;;;;;;;2206818;67;1193;-62
2022/07/20 08:09:42;;;;;;;;;;;;;;;;;;2206671;67;1215;-66
2022/07/20 08:12:15;;;;;;;;;;;;;;;;;;2206467;59;1276;-63
2022/07/20 08:14:48;;;;;;;;;;;;;;;;;;2206643;67;1277;-63
2022/07/20 08:17:24;;;;;;;;;;;;;;;;;;2206571;67;1248;-65
2022/07/20 08:19:57;;;;;;;;;;;;;;;;;;2206485;59;2083;-64
2022/07/20 08:22:30;;;;;;;;;;;;;;;;;;2206979;67;1599;-64
2022/07/20 08:25:03;;;;;;;;;;;;;;;;;;2206743;67;1937;-62
2022/07/20 08:27:37;;;;;;;;;;;;;;;;;;2206587;67;1246;-65
2022/07/20 08:30:11;;;;;;;;;;;;;;;;;;2206667;59;1164;-65
2022/07/20 08:32:46;;;;;;;;;;;;;;;;;;2206074;67;1033;-66
2022/07/20 08:35:19;;;;;;;;;;;;;;;;;;2206507;67;1287;-64
2022/07/20 08:37:53;;;;;;;;;;;;;;;;;;2206108;67;1105;-63
2022/07/20 08:40:27;;;;;;;;;;;;;;;;;;2206051;67;1205;-66
2022/07/20 08:43:00;;;;;;;;;;;;;;;;;;2206331;67;1022;-63
2022/07/20 08:45:33;;;;;;;;;;;;;;;;;;2206198;67;1985;-64
2022/07/20 08:48:11;;;;;;;;;;;;;;;;;;2206460;67;1125;-65
2022/07/20 08:50:44;;;;;;;;;;;;;;;;;;2206511;67;1140;-66
2022/07/20 08:53:19;;;;;;;;;;;;;;;;;;2206878;67;1239;-65
2022/07/20 08:55:52;;;;;;;;;;;;;;;;;;2206732;67;1229;-65
2022/07/20 08:58:26;;;;;;;;;;;;;;;;;;2208062;59;1240;-64
2022/07/20 09:00:59;;;;;;;;;;;;;;;;;;2207052;67;1188;-64
2022/07/20 09:03:35;;;;;;;;;;;;;;;;;;2207737;59;1244;-65
2022/07/20 09:16:50;;;;;;;;;;;;;;;;;;2220944;53;2150;-56
2022/07/20 09:19:27;;;;;;;;;;;;;;;;;;2206818;59;1866;-60
2022/07/20 09:22:00;;;;;;;;;;;;;;;;;;2208004;59;1364;-56
2022/07/20 09:24:33;;;;;;;;;;;;;;;;;;2207618;59;1939;-57
2022/07/20 09:27:06;;;;;;;;;;;;;;;;;;2207821;67;1269;-58
2022/07/20 09:29:39;;;;;;;;;;;;;;;;;;2208217;67;1218;-57
2022/07/20 09:32:13;;;;;;;;;;;;;;;;;;2206152;59;2269;-57
2022/07/20 09:34:48;;;;;;;;;;;;;;;;;;2207866;59;1484;-56
2022/07/20 09:37:22;;;;;;;;;;;;;;;;;;2207321;67;1236;-56
2022/07/20 09:40:02;;;;;;;;;;;;;;;;;;2206667;67;1117;-59
2022/07/20 09:42:39;;;;;;;;;;;;;;;;;;2208534;67;1248;-60
2022/07/20 09:45:26;;;;;;;;;;;;;;;;;;2207882;67;1927;-56
2022/07/20 09:48:08;;;;;;;;;;;;;;;;;;2206796;67;1104;-60
2022/07/20 09:50:44;;;;;;;;;;;;;;;;;;2206694;59;1245;-59
2022/07/20 09:53:18;;;;;;;;;;;;;;;;;;2207379;67;1231;-57
2022/07/20 09:55:53;;;;;;;;;;;;;;;;;;2207803;67;1197;-61
2022/07/20 09:58:27;;;;;;;;;;;;;;;;;;2208321;67;1193;-57
2022/07/20 10:01:02;;;;;;;;;;;;;;;;;;2207132;67;1148;-59
2022/07/20 10:03:35;;;;;;;;;;;;;;;;;;2208065;59;1221;-56
2022/07/20 10:06:12;;;;;;;;;;;;;;;;;;2207744;67;1943;-56
2022/07/20 10:08:45;;;;;;;;;;;;;;;;;;2204095;67;1827;-55
2022/07/20 10:11:20;;;;;;;;;;;;;;;;;;2208788;59;1456;-57
2022/07/20 10:13:53;;;;;;;;;;;;;;;;;;2208019;67;1117;-56
2022/07/20 10:16:29;;;;;;;;;;;;;;;;;;2207895;67;1199;-56
2022/07/20 10:19:03;;;;;;;;;;;;;;;;;;2207063;59;2008;-59
2022/07/20 10:21:40;;;;;;;;;;;;;;;;;;2208522;59;2344;-61
2022/07/20 10:24:31;;;;;;;;;;;;;;;;;;2208048;67;1211;-58
2022/07/20 10:27:19;;;;;;;;;;;;;;;;;;2207435;67;1922;-60
2022/07/20 10:29:53;;;;;;;;;;;;;;;;;;2206695;67;1543;-60
2022/07/20 10:32:28;;;;;;;;;;;;;;;;;;2208264;67;1291;-58
2022/07/20 10:35:02;;;;;;;;;;;;;;;;;;2207550;67;1250;-57
2022/07/20 10:37:41;;;;;;;;;;;;;;;;;;2207735;67;1291;-56
2022/07/20 10:40:16;;;;;;;;;;;;;;;;;;2207472;67;1263;-60
2022/07/20 10:42:51;;;;;;;;;;;;;;;;;;2207776;67;1087;-60
2022/07/20 10:45:32;;;;;;;;;;;;;;;;;;2204714;59;1975;-59
2022/07/20 10:48:18;;;;;;;;;;;;;;;;;;2207193;67;1348;-64
2022/07/20 10:50:54;;;;;;;;;;;;;;;;;;2207250;59;1158;-58
2022/07/20 10:53:34;;;;;;;;;;;;;;;;;;2208286;67;1207;-61
2022/07/20 10:56:07;;;;;;;;;;;;;;;;;;2207572;67;1209;-59
2022/07/20 10:58:43;;;;;;;;;;;;;;;;;;2207887;67;1189;-60
2022/07/20 11:01:17;;;;;;;;;;;;;;;;;;2207156;67;1207;-58
2022/07/20 11:03:50;;;;;;;;;;;;;;;;;;2207545;59;1323;-61
2022/07/20 11:06:25;;;;;;;;;;;;;;;;;;2207696;67;1911;-59
2022/07/20 11:09:01;;;;;;;;;;;;;;;;;;2206588;67;1130;-56
2022/07/20 11:11:36;;;;;;;;;;;;;;;;;;2207037;59;1260;-59
2022/07/20 11:14:11;;;;;;;;;;;;;;;;;;2207674;67;1153;-59
2022/07/20 11:16:44;;;;;;;;;;;;;;;;;;2206695;59;1299;-60
2022/07/20 11:19:18;;;;;;;;;;;;;;;;;;2207620;59;2023;-57
2022/07/20 11:21:51;;;;;;;;;;;;;;;;;;2207137;67;1232;-59
2022/07/20 11:24:28;;;;;;;;;;;;;;;;;;2207682;67;1216;-59
2022/07/20 11:27:13;;;;;;;;;;;;;;;;;;2206723;67;1933;-59
2022/07/20 11:29:47;;;;;;;;;;;;;;;;;;2207044;67;1207;-56
2022/07/20 11:32:21;;;;;;;;;;;;;;;;;;2207358;67;1243;-59
2022/07/20 11:34:54;;;;;;;;;;;;;;;;;;2207400;67;1255;-56
2022/07/20 11:37:27;;;;;;;;;;;;;;;;;;2207905;59;1674;-56
2022/07/20 11:40:05;;;;;;;;;;;;;;;;;;2207661;67;1188;-57
2022/07/20 11:42:38;;;;;;;;;;;;;;;;;;2207710;67;1297;-56
2022/07/20 11:45:11;;;;;;;;;;;;;;;;;;2206679;67;1282;-57
2022/07/20 11:47:45;;;;;;;;;;;;;;;;;;2207129;67;1937;-59
2022/07/20 11:50:18;;;;;;;;;;;;;;;;;;2206973;67;1145;-59
2022/07/20 11:52:51;;;;;;;;;;;;;;;;;;2206930;67;1290;-58
2022/07/20 11:55:38;;;;;;;;;;;;;;;;;;2206990;67;1163;-59
2022/07/20 11:58:11;;;;;;;;;;;;;;;;;;2206111;67;1168;-61
2022/07/20 12:00:44;;;;;;;;;;;;;;;;;;2207118;67;1294;-61
2022/07/20 12:03:17;;;;;;;;;;;;;;;;;;2206940;59;1331;-58
2022/07/20 12:05:50;;;;;;;;;;;;;;;;;;2206928;67;1984;-57
2022/07/20 12:08:24;;;;;;;;;;;;;;;;;;2207271;67;1242;-59
2022/07/20 12:11:00;;;;;;;;;;;;;;;;;;2207264;59;1406;-56
2022/07/20 12:13:34;;;;;;;;;;;;;;;;;;2206464;67;1095;-57
2022/07/20 12:16:08;;;;;;;;;;;;;;;;;;2206093;59;1254;-59
2022/07/20 12:18:44;;;;;;;;;;;;;;;;;;2207435;59;2096;-62
2022/07/20 12:21:18;;;;;;;;;;;;;;;;;;2206875;59;1895;-58
2022/07/20 12:23:52;;;;;;;;;;;;;;;;;;2207270;67;1087;-57
2022/07/20 12:26:33;;;;;;;;;;;;;;;;;;2206758;67;1963;-59
2022/07/20 12:29:19;;;;;;;;;;;;;;;;;;2206906;67;1142;-60
2022/07/20 12:31:59;;;;;;;;;;;;;;;;;;2207114;67;1691;-59
2022/07/20 12:34:33;;;;;;;;;;;;;;;;;;2206850;67;1188;-56
2022/07/20 12:37:06;;;;;;;;;;;;;;;;;;2206413;67;1220;-56
2022/07/20 12:39:40;;;;;;;;;;;;;;;;;;2207240;67;1141;-60
2022/07/20 12:42:19;;;;;;;;;;;;;;;;;;2206748;67;1185;-60
2022/07/20 12:45:00;;;;;;;;;;;;;;;;;;2207088;67;1110;-58
2022/07/20 12:47:33;;;;;;;;;;;;;;;;;;2206309;67;1908;-58
2022/07/20 12:50:07;;;;;;;;;;;;;;;;;;2206875;67;1229;-56
2022/07/20 12:52:40;;;;;;;;;;;;;;;;;;2206988;67;1096;-57
2022/07/20 12:55:14;;;;;;;;;;;;;;;;;;2207040;67;1276;-58
2022/07/20 12:57:51;;;;;;;;;;;;;;;;;;2206894;67;1147;-56
2022/07/20 13:00:24;;;;;;;;;;;;;;;;;;2207078;67;1243;-58
2022/07/20 13:02:57;;;;;;;;;;;;;;;;;;2206349;67;1790;-56
2022/07/20 13:05:31;;;;;;;;;;;;;;;;;;2206302;67;1292;-57
2022/07/20 13:08:05;;;;;;;;;;;;;;;;;;2206618;67;2003;-56
2022/07/20 13:10:38;;;;;;;;;;;;;;;;;;2206819;59;1384;-57
2022/07/20 13:13:14;;;;;;;;;;;;;;;;;;2206903;59;1232;-55
2022/07/20 13:15:47;;;;;;;;;;;;;;;;;;2206389;59;1219;-55
2022/07/20 13:18:20;;;;;;;;;;;;;;;;;;2207443;67;1252;-56
2022/07/20 13:20:54;;;;;;;;;;;;;;;;;;2207403;59;2363;-55
2022/07/20 13:23:27;;;;;;;;;;;;;;;;;;2207612;67;1329;-57
2022/07/20 13:26:00;;;;;;;;;;;;;;;;;;2207494;67;1996;-55
2022/07/20 13:28:36;;;;;;;;;;;;;;;;;;2208984;67;1081;-56
2022/07/20 13:31:09;;;;;;;;;;;;;;;;;;2208201;67;1040;-56
2022/07/20 13:33:43;;;;;;;;;;;;;;;;;;2208439;67;1148;-58
2022/07/20 13:36:16;;;;;;;;;;;;;;;;;;2208833;67;1303;-57
2022/07/20 13:38:52;;;;;;;;;;;;;;;;;;2208361;67;1149;-56
2022/07/20 13:41:26;;;;;;;;;;;;;;;;;;2208471;67;1203;-59
2022/07/20 13:44:02;;;;;;;;;;;;;;;;;;2208422;67;1164;-57
2022/07/20 13:46:35;;;;;;;;;;;;;;;;;;2207717;67;1937;-56
2022/07/20 13:49:08;;;;;;;;;;;;;;;;;;2208447;67;1136;-60
2022/07/20 13:51:41;;;;;;;;;;;;;;;;;;2208489;67;1241;-56
2022/07/20 13:54:15;;;;;;;;;;;;;;;;;;2208577;67;1783;-56
2022/07/20 13:56:48;;;;;;;;;;;;;;;;;;2208139;67;1249;-58
2022/07/20 13:59:24;;;;;;;;;;;;;;;;;;2208032;67;1271;-56
2022/07/20 14:01:57;;;;;;;;;;;;;;;;;;2208122;67;1229;-56
2022/07/20 14:04:30;;;;;;;;;;;;;;;;;;2207820;59;1277;-57
2022/07/20 14:07:03;;;;;;;;;;;;;;;;;;2208021;67;1986;-60
2022/07/20 14:09:36;;;;;;;;;;;;;;;;;;2208227;67;1202;-60
2022/07/20 14:12:10;;;;;;;;;;;;;;;;;;2208217;59;1445;-60
2022/07/20 14:14:46;;;;;;;;;;;;;;;;;;2208235;59;1638;-60
2022/07/20 14:17:19;;;;;;;;;;;;;;;;;;2208021;67;1218;-59
2022/07/20 14:19:52;;;;;;;;;;;;;;;;;;2207759;59;2039;-58
2022/07/20 14:22:26;;;;;;;;;;;;;;;;;;2208136;67;1162;-57
2022/07/20 14:24:59;;;;;;;;;;;;;;;;;;2207943;67;1379;-56
2022/07/20 14:27:33;;;;;;;;;;;;;;;;;;2208009;67;1920;-57
2022/07/20 14:30:09;;;;;;;;;;;;;;;;;;2206957;67;1586;-59
2022/07/20 14:32:43;;;;;;;;;;;;;;;;;;2207909;67;1132;-57
2022/07/20 14:35:16;;;;;;;;;;;;;;;;;;2207606;67;1280;-58
2022/07/20 14:37:49;;;;;;;;;;;;;;;;;;2207365;67;1117;-61
2022/07/20 14:40:22;;;;;;;;;;;;;;;;;;2207291;67;1241;-56
2022/07/20 14:42:55;;;;;;;;;;;;;;;;;;2207727;67;1109;-58
2022/07/20 14:45:33;;;;;;;;;;;;;;;;;;2207294;67;1281;-58
2022/07/20 14:48:07;;;;;;;;;;;;;;;;;;2206952;67;1929;-56
2022/07/20 14:50:40;;;;;;;;;;;;;;;;;;2206920;67;1207;-56
2022/07/20 14:53:13;;;;;;;;;;;;;;;;;;2207188;67;1167;-59
2022/07/20 14:55:46;;;;;;;;;;;;;;;;;;2207653;67;1210;-57
2022/07/20 14:58:20;;;;;;;;;;;;;;;;;;2207221;67;1181;-55
2022/07/20 15:00:56;;;;;;;;;;;;;;;;;;2207003;67;1109;-59
2022/07/20 15:03:29;;;;;;;;;;;;;;;;;;2207362;59;1439;-56
2022/07/20 15:06:02;;;;;;;;;;;;;;;;;;2206265;67;1272;-56
2022/07/20 15:08:35;;;;;;;;;;;;;;;;;;2208418;67;1982;-57
2022/07/20 15:11:08;;;;;;;;;;;;;;;;;;2207240;59;1411;-59
2022/07/20 15:13:41;;;;;;;;;;;;;;;;;;2207864;67;1156;-58
2022/07/20 15:16:17;;;;;;;;;;;;;;;;;;2207082;59;1218;-57
2022/07/20 15:18:50;;;;;;;;;;;;;;;;;;2207952;59;2019;-55
2022/07/20 15:21:25;;;;;;;;;;;;;;;;;;2206928;59;1958;-55
2022/07/20 15:23:58;;;;;;;;;;;;;;;;;;2207242;67;1180;-55
2022/07/20 15:26:32;;;;;;;;;;;;;;;;;;2208133;67;1269;-58
2022/07/20 15:29:05;;;;;;;;;;;;;;;;;;2207577;67;1941;-55
2022/07/20 15:31:41;;;;;;;;;;;;;;;;;;2206679;67;1184;-55
2022/07/20 15:34:14;;;;;;;;;;;;;;;;;;2208054;67;1064;-60
2022/07/20 15:36:47;;;;;;;;;;;;;;;;;;2207881;67;1234;-57
2022/07/20 15:39:21;;;;;;;;;;;;;;;;;;2207897;67;1224;-55
2022/07/20 15:41:54;;;;;;;;;;;;;;;;;;2208492;67;1037;-56
2022/07/20 15:44:27;;;;;;;;;;;;;;;;;;2208156;67;1285;-63
2022/07/20 15:47:03;;;;;;;;;;;;;;;;;;2207203;67;1929;-55
2022/07/20 15:49:36;;;;;;;;;;;;;;;;;;2208215;67;1109;-58
2022/07/20 15:52:09;;;;;;;;;;;;;;;;;;2207308;67;1191;-56
2022/07/20 15:54:43;;;;;;;;;;;;;;;;;;2208053;67;1590;-57
2022/07/20 15:57:23;;;;;;;;;;;;;;;;;;2207807;67;1178;-56
2022/07/20 15:59:57;;;;;;;;;;;;;;;;;;2207287;67;1124;-60
2022/07/20 16:02:33;;;;;;;;;;;;;;;;;;2207487;67;1254;-58
2022/07/20 16:05:13;;;;;;;;;;;;;;;;;;2207889;67;1227;-57
2022/07/20 16:07:47;;;;;;;;;;;;;;;;;;2206464;67;1917;-59
2022/07/20 16:10:20;;;;;;;;;;;;;;;;;;2203454;67;1673;-56
2022/07/20 16:12:53;;;;;;;;;;;;;;;;;;2207717;59;1764;-55
2022/07/20 16:15:26;;;;;;;;;;;;;;;;;;2207832;59;1266;-55
2022/07/20 16:18:02;;;;;;;;;;;;;;;;;;2206908;67;1149;-55
2022/07/20 16:20:36;;;;;;;;;;;;;;;;;;2207574;59;2035;-55
2022/07/20 16:23:09;;;;;;;;;;;;;;;;;;2207877;67;1140;-57
2022/07/20 16:25:42;;;;;;;;;;;;;;;;;;2207867;60;1240;-59
2022/07/20 16:28:16;;;;;;;;;;;;;;;;;;2207224;67;1935;-57
2022/07/20 16:30:49;;;;;;;;;;;;;;;;;;2207917;67;1077;-56
2022/07/20 16:33:25;;;;;;;;;;;;;;;;;;2208199;67;1242;-55
2022/07/20 16:35:58;;;;;;;;;;;;;;;;;;2207976;67;1304;-57
2022/07/20 16:38:31;;;;;;;;;;;;;;;;;;2207994;67;1189;-58
2022/07/20 16:41:05;;;;;;;;;;;;;;;;;;2207322;59;1127;-58
2022/07/20 16:43:38;;;;;;;;;;;;;;;;;;2207601;67;1286;-55
2022/07/20 16:46:12;;;;;;;;;;;;;;;;;;2207207;67;1297;-56
2022/07/20 16:48:48;;;;;;;;;;;;;;;;;;2206610;67;1936;-56
2022/07/20 16:51:21;;;;;;;;;;;;;;;;;;2207568;67;1121;-59
2022/07/20 16:53:54;;;;;;;;;;;;;;;;;;2207478;67;1070;-60
2022/07/20 16:56:27;;;;;;;;;;;;;;;;;;2206872;67;1861;-57
2022/07/20 16:59:00;;;;;;;;;;;;;;;;;;2206784;67;1170;-56
2022/07/20 17:01:33;;;;;;;;;;;;;;;;;;2206558;59;1276;-56
2022/07/20 17:04:10;;;;;;;;;;;;;;;;;;2206570;59;1256;-57
2022/07/20 17:06:43;;;;;;;;;;;;;;;;;;2206877;59;1682;-56
2022/07/20 17:09:16;;;;;;;;;;;;;;;;;;2207089;59;1981;-55
2022/07/20 17:11:49;;;;;;;;;;;;;;;;;;2206880;59;1253;-58
2022/07/20 17:14:22;;;;;;;;;;;;;;;;;;2206843;67;1295;-55
2022/07/20 17:16:56;;;;;;;;;;;;;;;;;;2206582;59;1169;-58
2022/07/20 17:19:32;;;;;;;;;;;;;;;;;;2206591;59;2035;-57
2022/07/20 17:22:05;;;;;;;;;;;;;;;;;;2206495;67;1045;-57
2022/07/20 17:24:38;;;;;;;;;;;;;;;;;;2207162;67;1282;-56
2022/07/20 17:27:11;;;;;;;;;;;;;;;;;;2206854;67;1193;-58
2022/07/20 17:29:44;;;;;;;;;;;;;;;;;;2206185;67;1997;-55
2022/07/20 17:32:18;;;;;;;;;;;;;;;;;;2206800;67;1216;-57
2022/07/20 17:34:54;;;;;;;;;;;;;;;;;;2206209;59;1266;-55
2022/07/20 17:37:27;;;;;;;;;;;;;;;;;;2206436;67;1262;-55
2022/07/20 17:40:00;;;;;;;;;;;;;;;;;;2206681;67;1145;-62
2022/07/20 17:42:34;;;;;;;;;;;;;;;;;;2207067;67;1491;-56
2022/07/20 17:45:07;;;;;;;;;;;;;;;;;;2206426;67;1220;-56
2022/07/20 17:47:41;;;;;;;;;;;;;;;;;;2206733;60;1991;-56
2022/07/20 17:50:17;;;;;;;;;;;;;;;;;;2205559;67;1264;-57
2022/07/20 17:52:50;;;;;;;;;;;;;;;;;;2207226;67;1137;-56
2022/07/20 17:55:23;;;;;;;;;;;;;;;;;;2206617;67;1272;-55
2022/07/20 17:57:56;;;;;;;;;;;;;;;;;;2206406;67;1248;-55
2022/07/20 18:00:29;;;;;;;;;;;;;;;;;;2206523;67;1090;-55
2022/07/20 18:03:02;;;;;;;;;;;;;;;;;;2205868;59;1268;-55
2022/07/20 18:05:39;;;;;;;;;;;;;;;;;;2206433;67;1210;-55
2022/07/20 18:08:12;;;;;;;;;;;;;;;;;;2205978;59;1991;-56